Time;durP1;ratioP1;P1;durP2;ratioP2;P2;SDS_P1;SDS_P2;PMS_P1;PMS_P2;Temp;Humidity;BMP_temperature;BMP_pressure;BME280_temperature;BME280_humidity;BME280_pressure;Samples;Min_cycle;Max_cycle;Signal;HPM_P1;HPM_P2
2022/10/31 00:00:30;;;;;;;;;10.25;9.00;;;;;17.15;67.05;101582.56;4829545;29;45380;-82
2022/10/31 00:02:55;;;;;;;;;8.75;8.25;;;;;17.19;67.35;101593.16;4829166;29;45324;-82
2022/10/31 00:05:21;;;;;;;;;11.00;9.50;;;;;17.17;67.36;101600.47;4829512;29;45340;-82
2022/10/31 00:07:46;;;;;;;;;11.25;10.25;;;;;17.16;67.60;101605.91;4831929;29;45569;-82
2022/10/31 00:10:11;;;;;;;;;11.00;11.00;;;;;17.15;67.51;101601.47;4831444;29;45469;-82
2022/10/31 00:12:37;;;;;;;;;11.25;11.25;;;;;17.15;67.81;101606.84;4833918;29;45964;-82
2022/10/31 00:15:02;;;;;;;;;11.25;11.00;;;;;17.01;67.85;101589.47;4846156;29;45251;-82
2022/10/31 00:17:27;;;;;;;;;11.50;11.50;;;;;17.10;67.52;101600.81;4834382;29;45460;-82
2022/10/31 00:19:53;;;;;;;;;10.75;10.75;;;;;17.01;67.64;101591.31;4845789;29;45429;-82
2022/10/31 00:22:18;;;;;;;;;11.00;9.50;;;;;17.06;67.71;101594.69;4833011;29;49077;-82
2022/10/31 00:24:43;;;;;;;;;15.50;12.00;;;;;17.03;68.19;101592.97;4829868;29;45408;-83
2022/10/31 00:27:09;;;;;;;;;12.25;10.25;;;;;17.04;68.11;101591.19;4828059;29;45505;-82
2022/10/31 00:29:34;;;;;;;;;12.00;11.50;;;;;17.02;67.70;101593.94;4832664;29;45332;-82
2022/10/31 00:31:59;;;;;;;;;10.75;9.75;;;;;17.00;68.15;101600.34;4834340;29;45259;-82
2022/10/31 00:34:25;;;;;;;;;15.50;12.00;;;;;16.99;68.23;101601.28;4832737;29;45275;-82
2022/10/31 00:36:50;;;;;;;;;14.75;13.50;;;;;16.93;67.87;101599.75;4833243;29;45326;-82
2022/10/31 00:39:15;;;;;;;;;14.00;11.75;;;;;16.97;68.11;101606.78;4832191;29;45343;-82
2022/10/31 00:41:41;;;;;;;;;15.00;13.25;;;;;16.92;67.90;101611.47;4832215;29;45248;-82
2022/10/31 00:44:07;;;;;;;;;12.75;12.75;;;;;16.94;68.60;101606.91;4846465;29;45603;-82
2022/10/31 00:46:32;;;;;;;;;15.25;11.75;;;;;16.93;68.13;101602.44;4847499;29;45451;-82
2022/10/31 00:48:57;;;;;;;;;10.75;10.75;;;;;16.89;67.94;101591.84;4846766;29;45489;-82
2022/10/31 00:51:23;;;;;;;;;10.00;10.00;;;;;16.95;67.91;101597.84;4832365;29;46094;-82
2022/10/31 00:53:48;;;;;;;;;10.75;9.50;;;;;16.85;68.40;101580.34;4845644;29;45264;-82
2022/10/31 00:56:14;;;;;;;;;14.25;12.25;;;;;16.96;68.52;101598.75;4838667;29;45476;-82
2022/10/31 00:58:39;;;;;;;;;14.25;11.00;;;;;16.91;68.59;101588.16;4831075;29;45515;-82
2022/10/31 01:01:05;;;;;;;;;10.25;10.25;;;;;16.94;68.42;101595.22;4846452;29;46672;-83
2022/10/31 01:03:32;;;;;;;;;13.00;12.00;;;;;16.85;68.64;101574.94;4848662;29;45273;-82
2022/10/31 01:06:05;;;;;;;;;12.00;12.00;;;;;16.94;68.43;101592.53;4835394;29;45274;-82
2022/10/31 01:08:31;;;;;;;;;9.25;8.00;;;;;16.89;68.68;101576.56;4831471;29;45313;-83
2022/10/31 01:11:10;;;;;;;;;10.50;9.75;;;;;16.88;68.43;101576.63;4834401;29;45793;-82
2022/10/31 01:13:36;;;;;;;;;11.50;11.00;;;;;16.91;68.45;101573.81;4835023;29;45549;-82
2022/10/31 01:16:03;;;;;;;;;10.50;10.50;;;;;16.89;68.45;101563.09;4840942;29;45313;-82
2022/10/31 01:18:28;;;;;;;;;11.50;10.25;;;;;16.94;68.55;101570.94;4840689;29;45284;-82
2022/10/31 01:20:59;;;;;;;;;8.50;8.50;;;;;16.87;68.77;101545.22;4836433;29;46054;-82
2022/10/31 01:23:24;;;;;;;;;11.25;10.25;;;;;16.90;68.79;101551.34;4844348;29;45283;-82
2022/10/31 01:25:58;;;;;;;;;12.00;10.75;;;;;16.84;68.57;101543.53;4835171;29;45347;-82
2022/10/31 01:28:23;;;;;;;;;11.00;10.75;;;;;16.93;68.54;101551.19;4837664;29;45387;-83
2022/10/31 01:30:48;;;;;;;;;12.25;9.50;;;;;16.88;68.69;101550.53;4831638;29;55908;-82
2022/10/31 01:33:13;;;;;;;;;9.50;9.50;;;;;16.93;68.65;101551.19;4831260;29;45472;-82
2022/10/31 01:35:39;;;;;;;;;13.25;11.00;;;;;16.95;68.65;101556.53;4831352;29;45945;-82
2022/10/31 01:38:04;;;;;;;;;13.25;10.75;;;;;16.91;68.56;101545.00;4831200;29;45381;-82
2022/10/31 01:40:30;;;;;;;;;13.25;12.50;;;;;16.88;68.83;101537.06;4830627;29;45445;-82
2022/10/31 01:42:55;;;;;;;;;12.50;11.00;;;;;16.88;68.86;101537.06;4835671;29;45254;-82
2022/10/31 01:45:21;;;;;;;;;10.00;10.00;;;;;16.90;68.75;101535.16;4843199;29;45481;-82
2022/10/31 01:47:47;;;;;;;;;12.50;11.00;;;;;16.88;69.00;101525.41;4827021;29;45263;-82
2022/10/31 01:50:26;;;;;;;;;13.50;12.25;;;;;16.92;68.90;101522.47;4831630;29;45837;-83
2022/10/31 01:52:52;;;;;;;;;15.25;12.50;;;;;16.90;68.97;101512.72;4833101;29;45743;-83
2022/10/31 01:55:17;;;;;;;;;12.50;11.25;;;;;16.97;68.76;101528.56;4833558;29;45308;-83
2022/10/31 01:57:46;;;;;;;;;11.25;10.25;;;;;16.97;69.16;101536.66;4847018;29;45513;-83
2022/10/31 02:00:13;;;;;;;;;12.00;11.00;;;;;16.96;68.95;101537.59;4831785;29;46043;-83
2022/10/31 02:02:39;;;;;;;;;11.75;11.75;;;;;16.97;68.95;101542.03;4847705;29;45634;-83
2022/10/31 02:05:09;;;;;;;;;13.75;11.75;;;;;16.99;68.85;101536.53;4852888;29;45569;-83
2022/10/31 02:07:42;;;;;;;;;12.00;11.50;;;;;17.01;68.54;101537.38;4832885;29;45264;-83
2022/10/31 02:10:07;;;;;;;;;14.00;11.50;;;;;16.96;68.89;101529.50;4833287;29;45332;-83
2022/10/31 02:12:35;;;;;;;;;12.75;11.75;;;;;16.99;68.72;101525.75;4836092;29;45410;-83
2022/10/31 02:15:02;;;;;;;;;13.75;13.75;;;;;17.01;69.16;101530.16;4833819;29;45356;-83
2022/10/31 02:17:30;;;;;;;;;13.00;13.00;;;;;16.99;69.17;101512.28;4833135;29;45277;-83
2022/10/31 02:20:20;;;;;;;;;9.75;9.00;;;;;17.02;69.03;101512.13;4831464;29;46185;-83
2022/10/31 02:23:20;;;;;;;;;14.00;12.25;;;;;17.02;69.42;101504.03;4818127;29;45532;-82
2022/10/31 02:26:05;;;;;;;;;14.50;12.00;;;;;17.01;69.47;101497.78;4830044;29;45359;-83
2022/10/31 02:28:52;;;;;;;;;11.50;11.50;;;;;17.01;69.41;101505.88;4819552;29;46224;-83
2022/10/31 02:31:38;;;;;;;;;12.00;11.50;;;;;17.01;69.41;101510.41;4842517;29;47716;-83
2022/10/31 02:34:34;;;;;;;;;13.00;10.00;;;;;16.90;69.30;101492.00;4831735;29;45508;-83
2022/10/31 02:37:26;;;;;;;;;14.00;12.50;;;;;16.97;69.45;101509.69;4832036;29;45328;-83
2022/10/31 02:40:05;;;;;;;;;11.50;11.50;;;;;16.96;69.05;101499.81;4831961;29;45284;-83
2022/10/31 02:42:45;;;;;;;;;10.25;9.50;;;;;16.94;69.43;101493.63;4834058;29;47207;-83
2022/10/31 02:45:21;;;;;;;;;13.50;13.50;;;;;16.95;69.16;101494.50;4831449;29;45409;-83
2022/10/31 02:47:50;;;;;;;;;12.00;10.00;;;;;16.95;69.50;101492.66;4831272;29;45547;-83
2022/10/31 02:50:28;;;;;;;;;11.75;10.00;;;;;16.96;69.41;101490.88;4840609;29;45316;-83
2022/10/31 02:52:53;;;;;;;;;12.25;12.25;;;;;16.94;69.58;101482.84;4831434;29;45549;-83
2022/10/31 02:55:25;;;;;;;;;12.75;12.75;;;;;16.95;69.56;101481.88;4844836;29;45593;-83
2022/10/31 02:57:55;;;;;;;;;10.75;9.50;;;;;16.96;69.24;101486.34;4845720;29;45229;-83
2022/10/31 03:00:21;;;;;;;;;13.00;11.75;;;;;16.95;69.50;101484.56;4830685;29;45309;-83
2022/10/31 03:03:03;;;;;;;;;12.75;12.25;;;;;16.96;69.43;101486.34;4843415;29;47142;-83
2022/10/31 03:05:54;;;;;;;;;14.25;11.75;;;;;16.96;69.30;101482.78;4830570;29;45292;-83
2022/10/31 03:08:32;;;;;;;;;13.25;12.00;;;;;16.95;69.43;101478.31;4824035;29;45279;-83
2022/10/31 03:11:02;;;;;;;;;11.00;11.00;;;;;16.93;69.36;101474.81;4834482;29;45252;-83
2022/10/31 03:13:49;;;;;;;;;15.25;12.25;;;;;16.96;69.43;101475.56;4831218;29;45452;-83
2022/10/31 03:16:15;;;;;;;;;13.00;10.25;;;;;16.97;69.35;101471.91;4831978;29;45594;-83
2022/10/31 03:18:49;;;;;;;;;13.25;12.00;;;;;16.96;69.67;101472.00;4833484;29;45288;-83
2022/10/31 03:21:22;;;;;;;;;14.00;12.00;;;;;16.94;69.36;101469.38;4823141;29;45381;-83
2022/10/31 03:23:50;;;;;;;;;12.25;11.25;;;;;16.88;69.54;101464.25;4841436;29;47108;-83
2022/10/31 03:26:17;;;;;;;;;13.25;12.00;;;;;16.95;69.51;101467.53;4830328;29;45355;-83
2022/10/31 03:28:50;;;;;;;;;11.75;11.75;;;;;16.94;69.49;101466.66;4845312;29;45347;-83
2022/10/31 03:31:19;;;;;;;;;11.00;10.50;;;;;16.99;69.62;101466.44;4830214;29;45455;-83
2022/10/31 03:33:47;;;;;;;;;14.75;11.75;;;;;17.00;69.55;101463.66;4828648;29;45701;-83
2022/10/31 03:36:15;;;;;;;;;12.25;11.75;;;;;17.01;69.51;101461.84;4828950;29;45403;-83
2022/10/31 03:38:42;;;;;;;;;17.25;14.25;;;;;17.02;70.07;101458.19;4830697;29;45277;-83
2022/10/31 03:41:12;;;;;;;;;11.00;11.00;;;;;16.98;69.75;101440.44;4839982;29;45218;-83
2022/10/31 03:43:42;;;;;;;;;15.00;12.75;;;;;16.96;69.90;101435.09;4842323;29;46619;-83
2022/10/31 03:46:08;;;;;;;;;13.25;11.75;;;;;16.94;70.19;101431.63;4829212;29;45552;-83
2022/10/31 03:48:34;;;;;;;;;15.75;12.00;;;;;17.02;69.89;101450.09;4830362;29;45424;-83
2022/10/31 03:51:18;;;;;;;;;14.00;14.00;;;;;16.99;70.12;101443.06;4829856;29;45325;-83
2022/10/31 03:53:55;;;;;;;;;13.00;13.00;;;;;17.02;70.40;101445.59;4829607;29;46166;-83
2022/10/31 03:56:35;;;;;;;;;12.75;12.00;;;;;16.92;70.12;101424.53;4830314;29;45621;-83
2022/10/31 03:59:07;;;;;;;;;14.00;13.00;;;;;17.01;70.39;101434.88;4839893;29;45264;-83
2022/10/31 04:01:38;;;;;;;;;16.00;14.75;;;;;17.06;70.17;101434.63;4833374;29;45380;-83
2022/10/31 04:04:05;;;;;;;;;14.50;13.00;;;;;16.97;70.20;101415.28;4846959;29;45398;-83
2022/10/31 04:06:34;;;;;;;;;13.75;13.25;;;;;17.07;70.47;101433.69;4835402;29;45308;-83
2022/10/31 04:09:04;;;;;;;;;19.50;15.75;;;;;17.01;70.24;101422.25;4831528;29;45265;-83
2022/10/31 04:11:34;;;;;;;;;16.50;15.00;;;;;17.07;70.33;101428.31;4834087;29;45439;-83
2022/10/31 04:14:02;;;;;;;;;17.50;15.25;;;;;17.05;70.44;101417.59;4829101;29;46343;-83
2022/10/31 04:16:28;;;;;;;;;14.50;13.50;;;;;17.09;70.43;101421.91;4843096;29;45484;-83
2022/10/31 04:18:54;;;;;;;;;16.25;14.50;;;;;17.06;70.62;101411.25;4840523;29;45426;-83
2022/10/31 04:21:19;;;;;;;;;14.00;12.50;;;;;17.10;70.14;101425.47;4828291;29;45482;-83
2022/10/31 04:23:44;;;;;;;;;20.25;18.25;;;;;17.08;70.28;101419.28;4840571;29;56473;-77
2022/10/31 04:26:12;;;;;;;;;13.50;13.00;;;;;17.11;70.65;101422.69;4836275;29;45341;-77
2022/10/31 04:28:37;;;;;;;;;15.25;13.75;;;;;17.01;70.63;101399.81;4840741;29;45317;-77
2022/10/31 04:31:03;;;;;;;;;15.75;15.75;;;;;17.10;70.18;101418.25;4849880;29;45527;-77
2022/10/31 04:33:28;;;;;;;;;19.00;16.75;;;;;17.07;70.67;101417.53;4834756;29;45250;-77
2022/10/31 04:35:53;;;;;;;;;17.00;15.25;;;;;17.10;70.29;101422.78;4850662;29;45300;-77
2022/10/31 04:38:19;;;;;;;;;20.00;19.25;;;;;17.09;70.55;101416.50;4824134;29;45378;-77
2022/10/31 04:40:45;;;;;;;;;19.25;18.75;;;;;16.99;70.42;101405.28;4840033;29;45389;-77
2022/10/31 04:43:10;;;;;;;;;19.00;19.00;;;;;17.03;70.65;101411.41;4827303;29;45484;-77
2022/10/31 04:45:36;;;;;;;;;12.25;11.75;;;;;17.07;70.53;101413.00;4828283;29;45266;-77
2022/10/31 04:48:02;;;;;;;;;20.00;17.50;;;;;17.06;70.60;101405.88;4854750;29;45374;-77
2022/10/31 04:50:27;;;;;;;;;21.25;18.50;;;;;17.01;70.55;101399.81;4834561;29;45192;-77
2022/10/31 04:52:52;;;;;;;;;16.50;16.50;;;;;16.98;70.74;101390.03;4827780;29;46204;-77
2022/10/31 04:55:18;;;;;;;;;20.25;18.00;;;;;17.00;70.66;101390.84;4835456;29;45273;-77
2022/10/31 04:57:45;;;;;;;;;20.00;19.00;;;;;16.94;70.31;101374.97;4834084;29;45288;-77
2022/10/31 05:00:12;;;;;;;;;24.00;19.75;;;;;16.99;70.20;101381.03;4839088;29;45311;-77
2022/10/31 05:02:54;;;;;;;;;19.75;17.75;;;;;16.89;70.33;101370.75;4840148;29;46136;-77
2022/10/31 05:05:21;;;;;;;;;20.00;18.25;;;;;16.94;70.47;101385.78;4828043;29;45495;-77
2022/10/31 05:07:49;;;;;;;;;18.25;16.25;;;;;16.91;70.79;101382.34;4835811;29;45399;-77
2022/10/31 05:10:19;;;;;;;;;17.25;16.00;;;;;16.91;70.71;101379.66;4828064;29;45311;-77
2022/10/31 05:12:47;;;;;;;;;15.00;14.00;;;;;16.85;70.60;101364.63;4836911;29;46384;-77
2022/10/31 05:15:13;;;;;;;;;16.25;15.75;;;;;16.77;70.36;101354.22;4830601;29;45323;-77
2022/10/31 05:17:39;;;;;;;;;16.00;13.25;;;;;16.84;70.53;101369.16;4845362;29;45343;-77
2022/10/31 05:20:04;;;;;;;;;18.00;15.00;;;;;16.83;70.15;101364.66;4837127;29;45253;-77
2022/10/31 05:22:30;;;;;;;;;16.75;16.75;;;;;16.78;70.39;101357.75;4834178;29;45962;-77
2022/10/31 05:24:55;;;;;;;;;14.25;13.00;;;;;16.72;70.42;101352.66;4849163;29;45238;-77
2022/10/31 05:27:20;;;;;;;;;19.50;15.75;;;;;16.66;70.76;101338.53;4846057;29;45248;-77
2022/10/31 05:29:46;;;;;;;;;14.00;12.50;;;;;16.54;70.38;101324.75;4840533;29;45428;-77
2022/10/31 05:32:11;;;;;;;;;18.00;13.50;;;;;16.66;70.63;101343.94;4837096;29;45355;-77
2022/10/31 05:34:36;;;;;;;;;13.25;13.00;;;;;16.60;71.06;101338.81;4840123;29;46470;-77
2022/10/31 05:37:02;;;;;;;;;15.50;14.25;;;;;16.61;71.11;101337.03;4846432;29;45261;-77
2022/10/31 05:39:27;;;;;;;;;10.25;9.50;;;;;16.63;70.90;101335.97;4840272;29;45379;-77
2022/10/31 05:41:52;;;;;;;;;13.00;11.25;;;;;16.64;71.04;101337.75;4839215;29;46125;-77
2022/10/31 05:44:18;;;;;;;;;14.25;13.25;;;;;16.70;70.86;101344.66;4825408;29;45274;-77
2022/10/31 05:46:43;;;;;;;;;10.00;9.00;;;;;16.75;70.99;101356.06;4829661;29;45920;-77
2022/10/31 05:49:08;;;;;;;;;8.25;7.00;;;;;16.75;70.48;101348.00;4840566;29;45291;-77
2022/10/31 05:51:34;;;;;;;;;14.50;14.50;;;;;16.81;70.53;101347.69;4831853;29;53469;-77
2022/10/31 05:53:59;;;;;;;;;14.25;12.25;;;;;16.74;70.70;101331.88;4840308;29;48125;-77
2022/10/31 05:56:24;;;;;;;;;14.00;14.00;;;;;16.82;70.49;101346.75;4834223;29;45520;-77
2022/10/31 05:58:49;;;;;;;;;16.75;14.00;;;;;16.80;70.43;101339.69;4840249;29;45327;-77
2022/10/31 06:01:15;;;;;;;;;12.25;11.50;;;;;16.78;70.65;101336.19;4850875;29;47131;-77
2022/10/31 06:03:40;;;;;;;;;14.75;13.25;;;;;16.76;70.87;101324.63;4838233;29;45390;-77
2022/10/31 06:06:05;;;;;;;;;8.50;8.50;;;;;16.73;70.72;101313.97;4845644;29;45420;-77
2022/10/31 06:08:31;;;;;;;;;12.50;9.75;;;;;16.84;70.29;101330.50;4843665;29;45445;-77
2022/10/31 06:10:56;;;;;;;;;13.00;12.00;;;;;16.86;70.57;101334.03;4843890;29;45494;-77
2022/10/31 06:13:21;;;;;;;;;12.00;12.00;;;;;16.82;70.84;101321.59;4858647;29;45845;-77
2022/10/31 06:15:47;;;;;;;;;11.00;11.00;;;;;16.75;70.73;101298.59;4863281;29;45354;-77
2022/10/31 06:18:12;;;;;;;;;12.00;9.50;;;;;16.90;70.54;101329.34;4848683;29;45435;-77
2022/10/31 06:20:37;;;;;;;;;13.25;13.00;;;;;16.89;70.41;101308.72;4840869;29;47063;-77
2022/10/31 06:23:04;;;;;;;;;10.00;9.00;;;;;16.91;70.18;101309.53;4848771;29;45391;-77
2022/10/31 06:25:29;;;;;;;;;10.50;9.75;;;;;16.89;70.82;101308.72;4847600;29;45254;-77
2022/10/31 06:27:55;;;;;;;;;8.50;8.50;;;;;16.93;70.49;101307.63;4848503;29;45546;-77
2022/10/31 06:30:20;;;;;;;;;10.75;10.00;;;;;16.95;70.32;101303.91;4837663;29;45974;-77
2022/10/31 06:32:46;;;;;;;;;11.00;11.00;;;;;16.96;70.16;101305.66;4855547;29;45647;-77
2022/10/31 06:35:11;;;;;;;;;15.00;13.00;;;;;16.97;70.21;101310.13;4842617;29;45448;-77
2022/10/31 06:37:37;;;;;;;;;10.25;8.25;;;;;16.97;70.09;101302.03;4848302;29;45294;-77
2022/10/31 06:40:02;;;;;;;;;10.75;9.75;;;;;17.01;70.41;101310.81;4848266;29;45331;-77
2022/10/31 06:42:28;;;;;;;;;8.75;8.75;;;;;16.97;70.13;101299.31;4847258;29;45299;-77
2022/10/31 06:44:53;;;;;;;;;8.50;8.50;;;;;16.98;70.19;101292.97;4855269;29;45406;-77
2022/10/31 06:47:18;;;;;;;;;9.25;8.25;;;;;16.97;69.82;101293.94;4863043;29;45372;-77
2022/10/31 06:49:44;;;;;;;;;9.00;9.00;;;;;16.92;70.39;101281.63;4848014;29;47416;-77
2022/10/31 06:52:09;;;;;;;;;8.50;8.50;;;;;17.00;69.87;101299.16;4862809;29;45389;-77
2022/10/31 06:54:34;;;;;;;;;10.50;10.25;;;;;17.00;69.89;101298.28;4848570;29;45547;-77
2022/10/31 06:56:59;;;;;;;;;11.00;9.25;;;;;16.97;70.14;101298.44;4847900;29;45318;-77
2022/10/31 06:59:25;;;;;;;;;8.00;7.50;;;;;16.96;70.35;101294.88;4855195;29;47288;-77
2022/10/31 07:01:50;;;;;;;;;11.75;11.25;;;;;16.99;70.24;101297.41;4844092;29;45495;-77
2022/10/31 07:04:15;;;;;;;;;13.75;10.75;;;;;16.95;70.18;101294.94;4838633;29;45622;-77
2022/10/31 07:06:41;;;;;;;;;13.25;13.25;;;;;16.98;70.06;101292.09;4829138;29;50039;-77
2022/10/31 07:09:06;;;;;;;;;12.50;11.25;;;;;16.95;70.19;101285.03;4829393;29;46279;-77
2022/10/31 07:11:32;;;;;;;;;14.50;10.75;;;;;16.95;70.21;101282.31;4841299;29;45325;-77
2022/10/31 07:13:57;;;;;;;;;12.50;12.50;;;;;16.97;70.27;101279.56;4843913;29;45373;-77
2022/10/31 07:16:22;;;;;;;;;10.00;10.00;;;;;16.99;70.46;101273.16;4835538;29;45430;-77
2022/10/31 07:18:48;;;;;;;;;10.50;10.00;;;;;17.06;70.14;101297.09;4838384;29;45456;-77
2022/10/31 07:21:13;;;;;;;;;12.25;11.25;;;;;17.03;70.70;101292.72;4832485;29;45375;-77
2022/10/31 07:23:38;;;;;;;;;9.50;9.50;;;;;17.10;70.33;101282.50;4847117;29;45476;-77
2022/10/31 07:26:04;;;;;;;;;14.75;11.75;;;;;16.98;70.74;101257.91;4832433;29;48046;-77
2022/10/31 07:28:29;;;;;;;;;16.50;14.75;;;;;17.07;70.06;101278.13;4834099;29;45254;-77
2022/10/31 07:30:57;;;;;;;;;13.50;10.75;;;;;17.02;70.48;101269.41;4824599;29;45329;-77
2022/10/31 07:33:23;;;;;;;;;14.00;13.00;;;;;17.09;70.37;101270.84;4834087;29;45216;-77
2022/10/31 07:35:48;;;;;;;;;14.25;12.25;;;;;17.10;70.70;101271.72;4824994;29;45468;-77
2022/10/31 07:38:14;;;;;;;;;15.50;13.25;;;;;17.13;70.27;101293.16;4832376;29;45411;-77
2022/10/31 07:40:41;;;;;;;;;16.25;13.00;;;;;17.08;70.60;101266.41;4834246;29;45373;-77
2022/10/31 07:43:07;;;;;;;;;18.25;16.75;;;;;17.11;70.55;101274.34;4833515;29;45320;-77
2022/10/31 07:45:32;;;;;;;;;13.25;11.75;;;;;17.14;70.40;101282.28;4832268;29;45287;-77
2022/10/31 07:47:58;;;;;;;;;11.25;11.25;;;;;17.08;70.27;101274.50;4832222;29;45351;-76
2022/10/31 07:50:30;;;;;;;;;14.00;14.00;;;;;17.13;70.56;101274.25;4843359;29;45712;-77
2022/10/31 07:53:10;;;;;;;;;15.25;13.75;;;;;17.11;70.44;101266.25;4841112;29;45428;-76
2022/10/31 07:55:36;;;;;;;;;15.00;15.00;;;;;17.09;70.13;101262.75;4842530;29;45906;-77
2022/10/31 07:58:07;;;;;;;;;15.25;15.00;;;;;17.01;69.97;101263.16;4829894;29;45322;-77
2022/10/31 08:00:34;;;;;;;;;18.50;16.00;;;;;17.04;70.43;101276.47;4833809;29;45431;-77
2022/10/31 08:03:04;;;;;;;;;14.00;14.00;;;;;17.03;70.70;101272.03;4824903;29;45443;-77
2022/10/31 08:05:31;;;;;;;;;13.75;10.75;;;;;17.02;70.78;101264.91;4820709;29;45423;-77
2022/10/31 08:07:57;;;;;;;;;17.00;15.00;;;;;16.94;70.41;101253.63;4826685;29;45465;-77
2022/10/31 08:10:23;;;;;;;;;20.25;18.00;;;;;17.03;70.40;101265.75;4828565;29;45550;-78
2022/10/31 08:12:58;;;;;;;;;16.75;15.00;;;;;17.03;70.57;101268.47;4833332;29;45357;-76
2022/10/31 08:15:24;;;;;;;;;19.00;19.00;;;;;17.08;70.76;101261.00;4836224;29;45356;-76
2022/10/31 08:17:49;;;;;;;;;23.25;20.25;;;;;17.08;70.90;101266.41;4825434;29;45670;-77
2022/10/31 08:20:15;;;;;;;;;16.75;16.75;;;;;17.13;70.99;101268.88;4832805;29;45401;-77
2022/10/31 08:22:40;;;;;;;;;20.00;18.50;;;;;17.10;70.83;101266.31;4839490;29;45293;-77
2022/10/31 08:25:05;;;;;;;;;19.75;18.25;;;;;17.06;70.67;101257.53;4823289;29;45316;-77
2022/10/31 08:27:31;;;;;;;;;21.75;21.50;;;;;17.06;70.94;101252.13;4847010;29;46745;-78
2022/10/31 08:29:56;;;;;;;;;24.25;23.25;;;;;17.09;71.29;101248.38;4827936;29;45289;-77
2022/10/31 08:32:21;;;;;;;;;20.50;18.75;;;;;17.08;71.15;101243.97;4834938;29;45330;-80
2022/10/31 08:34:47;;;;;;;;;22.00;20.75;;;;;17.10;71.17;101245.59;4828134;29;45291;-81
2022/10/31 08:37:12;;;;;;;;;15.50;15.50;;;;;17.02;71.22;101231.66;4839149;29;47411;-81
2022/10/31 08:39:37;;;;;;;;;23.50;22.75;;;;;17.09;71.00;101229.50;4839624;29;46218;-81
2022/10/31 08:42:03;;;;;;;;;23.25;22.50;;;;;17.10;71.52;101224.03;4824767;29;45484;-81
2022/10/31 08:44:28;;;;;;;;;25.00;22.00;;;;;17.08;70.98;101217.84;4827314;29;45474;-81
2022/10/31 08:46:53;;;;;;;;;25.25;23.25;;;;;17.10;70.84;101218.63;4825767;29;45352;-81
2022/10/31 08:49:19;;;;;;;;;28.25;22.75;;;;;17.10;71.24;101217.78;4839530;29;46888;-81
2022/10/31 08:51:48;;;;;;;;;20.50;20.50;;;;;17.14;71.47;101220.25;4847797;29;45262;-80
2022/10/31 08:54:13;;;;;;;;;17.50;17.50;;;;;17.14;71.23;101222.03;4842714;29;45643;-81
2022/10/31 08:56:38;;;;;;;;;23.00;18.00;;;;;17.18;71.17;101224.50;4830445;29;45469;-81
2022/10/31 08:59:04;;;;;;;;;19.00;19.00;;;;;17.13;71.65;101196.03;4831373;29;45348;-81
2022/10/31 09:01:29;;;;;;;;;20.75;19.50;;;;;17.20;71.33;101198.31;4825865;29;45910;-81
2022/10/31 09:03:54;;;;;;;;;21.50;19.00;;;;;17.18;71.70;101193.97;4844487;29;45884;-81
2022/10/31 09:06:20;;;;;;;;;21.25;21.25;;;;;17.25;71.03;101194.50;4829236;29;46075;-81
2022/10/31 09:08:45;;;;;;;;;24.50;23.00;;;;;17.25;71.45;101194.50;4845114;29;45193;-81
2022/10/31 09:11:10;;;;;;;;;26.00;22.75;;;;;17.21;71.43;101170.41;4842512;29;45302;-82
2022/10/31 09:13:36;;;;;;;;;23.75;23.50;;;;;17.27;71.47;101162.91;4829560;29;45239;-80
2022/10/31 09:16:01;;;;;;;;;25.50;22.25;;;;;17.26;71.19;101155.78;4840395;29;45260;-80
2022/10/31 09:18:31;;;;;;;;;20.00;18.00;;;;;17.27;71.18;101154.81;4835834;29;45424;-81
2022/10/31 09:20:58;;;;;;;;;23.50;21.00;;;;;17.26;71.75;101148.56;4829685;29;45527;-80
2022/10/31 09:23:24;;;;;;;;;25.00;23.25;;;;;17.27;71.29;101144.91;4830178;29;45288;-81
2022/10/31 09:25:52;;;;;;;;;22.25;22.00;;;;;17.25;71.48;101141.41;4832027;29;45305;-81
2022/10/31 09:28:20;;;;;;;;;24.50;22.00;;;;;17.23;71.43;101137.94;4831831;29;45342;-81
2022/10/31 09:30:47;;;;;;;;;22.50;21.50;;;;;17.18;71.43;101131.94;4841900;29;45309;-80
2022/10/31 09:33:13;;;;;;;;;24.00;23.25;;;;;17.23;71.55;101140.63;4831161;29;45356;-81
2022/10/31 09:35:40;;;;;;;;;18.25;17.50;;;;;17.28;71.62;101137.69;4830787;29;46126;-80
2022/10/31 09:38:18;;;;;;;;;22.25;21.00;;;;;17.31;71.75;101146.50;4833683;29;45261;-81
2022/10/31 09:40:54;;;;;;;;;23.50;22.00;;;;;17.36;71.65;101140.84;4840107;29;45252;-81
2022/10/31 09:43:30;;;;;;;;;28.50;26.00;;;;;17.40;71.94;101134.31;4830173;29;45452;-81
2022/10/31 09:46:07;;;;;;;;;23.00;22.25;;;;;17.45;71.41;101116.03;4830060;29;45855;-81
2022/10/31 09:48:53;;;;;;;;;26.25;21.25;;;;;17.43;71.34;101117.97;4832849;29;45549;-80
2022/10/31 09:51:23;;;;;;;;;25.00;24.75;;;;;17.45;71.66;101116.03;4843032;29;45400;-81
2022/10/31 09:53:55;;;;;;;;;28.25;24.75;;;;;17.39;71.56;101095.69;4822010;29;45432;-80
2022/10/31 09:56:22;;;;;;;;;22.25;21.75;;;;;17.47;71.36;101097.06;4821033;29;45444;-81
2022/10/31 09:58:58;;;;;;;;;28.00;22.25;;;;;17.49;71.82;101100.53;4818181;29;45555;-81
2022/10/31 10:01:37;;;;;;;;;20.00;18.00;;;;;17.57;71.60;101117.19;4822477;29;45496;-80
2022/10/31 10:04:26;;;;;;;;;23.50;22.00;;;;;17.57;71.65;101099.19;4820211;29;46318;-79
2022/10/31 10:06:52;;;;;;;;;24.00;22.50;;;;;17.64;71.56;101098.81;4833732;29;46931;-80
2022/10/31 10:09:21;;;;;;;;;25.50;24.25;;;;;17.73;71.18;101099.19;4818524;29;45260;-81
2022/10/31 10:12:00;;;;;;;;;21.25;20.75;;;;;17.77;71.31;101087.25;4822251;29;45530;-80
2022/10/31 10:14:41;;;;;;;;;26.75;25.00;;;;;17.82;70.73;101075.31;4822386;29;45499;-80
2022/10/31 10:17:18;;;;;;;;;27.00;23.75;;;;;17.76;70.46;101053.09;4820359;29;46016;-80
2022/10/31 10:20:01;;;;;;;;;29.75;22.75;;;;;17.80;70.83;101061.91;4818847;29;45550;-80
2022/10/31 10:23:19;;;;;;;;;22.25;21.50;;;;;17.83;70.77;101060.88;4819500;29;45463;-80
2022/10/31 10:25:49;;;;;;;;;24.50;21.00;;;;;17.86;71.00;101056.16;4820130;29;45368;-80
2022/10/31 10:28:38;;;;;;;;;20.50;20.50;;;;;17.87;70.26;101048.94;4821944;29;45703;-80
2022/10/31 10:31:16;;;;;;;;;24.75;20.50;;;;;17.85;70.39;101037.34;4817492;29;47015;-80
2022/10/31 10:34:01;;;;;;;;;23.25;22.75;;;;;17.80;70.26;101031.34;4820642;29;46733;-80
2022/10/31 10:36:36;;;;;;;;;18.50;17.25;;;;;17.91;70.86;101037.03;4819391;29;45466;-80
2022/10/31 10:39:15;;;;;;;;;23.00;20.00;;;;;17.96;70.64;101033.09;4821141;29;46198;-80
2022/10/31 10:41:46;;;;;;;;;24.75;21.50;;;;;18.00;70.32;101022.97;4833369;29;45496;-80
2022/10/31 10:44:12;;;;;;;;;20.25;18.00;;;;;18.06;70.20;101024.41;4834772;29;46133;-80
2022/10/31 10:49:37;;;;;;;;;18.75;18.25;;;;;18.17;70.38;101002.19;4822773;29;45935;-79
2022/10/31 10:52:29;;;;;;;;;21.00;20.75;;;;;18.23;70.09;100991.00;4814262;29;46023;-79
2022/10/31 10:55:12;;;;;;;;;19.75;18.75;;;;;18.28;69.64;100975.38;4818882;29;46250;-81
2022/10/31 10:58:00;;;;;;;;;19.50;17.75;;;;;18.32;69.71;100966.13;4822734;29;45440;-80
2022/10/31 11:00:36;;;;;;;;;17.75;15.75;;;;;18.38;69.39;100956.78;4818510;29;46413;-80
2022/10/31 11:03:01;;;;;;;;;18.25;16.00;;;;;18.36;68.98;100945.16;4819253;29;46034;-80
2022/10/31 11:05:34;;;;;;;;;16.25;14.75;;;;;18.49;68.78;100957.84;4821848;29;47007;-80
2022/10/31 11:07:59;;;;;;;;;17.75;17.75;;;;;18.49;68.64;100954.25;4818793;29;45632;-79
2022/10/31 11:10:25;;;;;;;;;17.75;14.75;;;;;18.58;68.75;100956.41;4815703;29;45613;-79
2022/10/31 11:13:05;;;;;;;;;14.00;13.00;;;;;18.63;68.79;100948.88;4818847;29;46635;-79
2022/10/31 11:15:48;;;;;;;;;21.50;20.75;;;;;18.65;68.67;100938.81;4820394;29;46047;-79
2022/10/31 11:18:21;;;;;;;;;22.00;19.00;;;;;18.73;68.87;100951.88;4817730;29;45518;-80
2022/10/31 11:20:53;;;;;;;;;18.75;14.50;;;;;18.81;68.79;100951.34;4818966;29;47102;-79
2022/10/31 11:23:20;;;;;;;;;15.75;14.25;;;;;18.88;68.51;100948.22;4824120;29;45553;-79